Time;durP1;ratioP1;P1;durP2;ratioP2;P2;SDS_P1;SDS_P2;PMS_P1;PMS_P2;Temp;Humidity;BMP_temperature;BMP_pressure;BME280_temperature;BME280_humidity;BME280_pressure;Samples;Min_cycle;Max_cycle;Signal;HPM_P1;HPM_P2
2022/09/30 00:00:19;;;;;;;10.50;6.60;;;10.50;99.90;;;;;;5054383;28;20025;-72
2022/09/30 00:02:45;;;;;;;9.65;6.68;;;10.50;99.90;;;;;;5054271;28;20055;-72
2022/09/30 00:05:10;;;;;;;10.27;7.37;;;10.50;99.90;;;;;;5055008;28;20028;-72
2022/09/30 00:07:36;;;;;;;9.27;7.37;;;10.60;99.90;;;;;;5054617;28;20025;-72
2022/09/30 00:10:02;;;;;;;11.07;7.43;;;10.60;99.90;;;;;;5053788;28;20040;-72
2022/09/30 00:12:27;;;;;;;9.95;7.30;;;10.60;99.90;;;;;;5053233;28;20024;-72
2022/09/30 00:14:53;;;;;;;9.80;6.77;;;10.50;99.90;;;;;;5054581;28;20029;-72
2022/09/30 00:17:19;;;;;;;10.10;8.35;;;10.50;99.90;;;;;;5053575;28;20049;-72
2022/09/30 00:19:46;;;;;;;10.05;7.90;;;10.60;99.90;;;;;;5054685;28;20031;-72
2022/09/30 00:22:11;;;;;;;12.93;9.23;;;10.60;99.90;;;;;;5053170;28;20079;-72
2022/09/30 00:24:37;;;;;;;14.55;8.73;;;10.50;99.90;;;;;;5054459;28;20025;-71
2022/09/30 00:27:02;;;;;;;12.13;9.13;;;10.50;99.90;;;;;;5054529;28;20366;-73
2022/09/30 00:29:28;;;;;;;12.23;8.47;;;10.60;99.90;;;;;;5053246;28;20044;-72
2022/09/30 00:31:53;;;;;;;10.57;7.70;;;10.60;99.90;;;;;;5054388;28;20477;-72
2022/09/30 00:34:19;;;;;;;10.37;7.73;;;10.60;99.90;;;;;;5052614;28;20037;-73
2022/09/30 00:36:49;;;;;;;10.07;7.93;;;10.60;99.90;;;;;;5052830;28;20060;-72
2022/09/30 00:39:19;;;;;;;11.88;8.02;;;10.50;99.90;;;;;;5056196;28;20267;-74
2022/09/30 00:41:47;;;;;;;10.57;8.00;;;10.50;99.90;;;;;;5056159;28;20025;-72
2022/09/30 00:44:50;;;;;;;11.65;7.60;;;10.50;99.90;;;;;;5054663;28;20021;-72
2022/09/30 00:47:46;;;;;;;16.02;9.10;;;10.40;99.90;;;;;;5052939;28;20049;-72
2022/09/30 00:50:15;;;;;;;12.48;8.00;;;10.40;99.90;;;;;;5052958;28;20025;-73
2022/09/30 00:52:44;;;;;;;12.10;7.57;;;10.30;99.90;;;;;;5053243;28;20463;-72
2022/09/30 00:55:33;;;;;;;12.60;8.43;;;10.30;99.90;;;;;;5052202;28;20055;-73
2022/09/30 00:58:02;;;;;;;14.25;8.88;;;10.20;99.90;;;;;;5054165;28;20104;-72
2022/09/30 01:00:28;;;;;;;11.73;8.95;;;10.30;99.90;;;;;;5053588;28;20033;-72
2022/09/30 01:02:54;;;;;;;14.75;10.43;;;10.20;99.90;;;;;;5052120;28;20503;-72
2022/09/30 01:05:21;;;;;;;13.05;8.65;;;10.20;99.90;;;;;;5053359;28;20029;-73
2022/09/30 01:07:48;;;;;;;13.82;10.00;;;10.20;99.90;;;;;;5053319;28;20052;-72
2022/09/30 01:10:13;;;;;;;13.32;10.15;;;10.10;99.90;;;;;;5052582;28;20021;-72
2022/09/30 01:12:39;;;;;;;16.20;11.13;;;10.20;99.90;;;;;;5052279;28;20029;-72
2022/09/30 01:15:05;;;;;;;15.67;10.67;;;10.10;99.90;;;;;;5054710;28;20037;-72
2022/09/30 01:17:51;;;;;;;14.57;10.77;;;10.10;99.90;;;;;;5054037;28;20025;-73
2022/09/30 01:20:40;;;;;;;17.88;11.25;;;10.10;99.90;;;;;;5053941;28;20087;-73
2022/09/30 01:23:41;;;;;;;13.75;9.45;;;10.10;99.90;;;;;;5053500;28;20031;-72
2022/09/30 01:26:25;;;;;;;14.85;10.35;;;10.30;99.90;;;;;;5053214;28;20025;-72
2022/09/30 01:29:22;;;;;;;13.70;9.75;;;10.20;99.90;;;;;;5051753;28;20067;-72
2022/09/30 01:32:13;;;;;;;14.23;10.25;;;10.50;99.90;;;;;;5054086;28;20025;-73
2022/09/30 01:34:58;;;;;;;17.52;12.25;;;10.40;99.90;;;;;;5053303;28;20044;-72
2022/09/30 01:37:28;;;;;;;16.75;11.48;;;10.30;99.90;;;;;;5053189;28;20026;-72
2022/09/30 01:40:31;;;;;;;16.95;11.85;;;10.20;99.90;;;;;;5051668;28;20024;-72
2022/09/30 01:43:23;;;;;;;14.13;10.15;;;10.20;99.90;;;;;;5043628;28;20463;-72
2022/09/30 01:46:02;;;;;;;19.80;12.77;;;10.20;99.90;;;;;;5050742;28;20478;-71
2022/09/30 01:48:52;;;;;;;17.02;12.00;;;10.20;99.90;;;;;;5053550;28;20474;-72
2022/09/30 01:51:33;;;;;;;18.08;12.45;;;10.30;99.90;;;;;;5056795;28;20540;-73
2022/09/30 01:54:08;;;;;;;17.48;11.75;;;10.30;99.90;;;;;;5056750;28;20021;-73
2022/09/30 01:56:40;;;;;;;15.70;11.77;;;10.30;99.90;;;;;;5056475;28;20025;-71
2022/09/30 01:59:12;;;;;;;14.40;11.23;;;10.40;99.90;;;;;;5056406;28;20017;-72
2022/09/30 02:01:45;;;;;;;15.73;10.57;;;10.40;99.90;;;;;;5055131;28;20028;-72
2022/09/30 02:04:18;;;;;;;14.48;10.68;;;10.50;99.90;;;;;;5054966;28;20113;-73
2022/09/30 02:06:49;;;;;;;16.10;11.68;;;10.50;99.90;;;;;;5056163;28;20020;-72
2022/09/30 02:09:32;;;;;;;16.63;11.25;;;10.50;99.90;;;;;;5055087;28;20135;-72
2022/09/30 02:12:03;;;;;;;16.20;11.13;;;10.60;99.90;;;;;;5055539;28;20029;-72
2022/09/30 02:14:55;;;;;;;15.85;12.05;;;10.70;99.90;;;;;;5056568;28;20107;-72
2022/09/30 02:17:51;;;;;;;16.60;11.82;;;10.80;99.90;;;;;;5056164;28;20485;-71
2022/09/30 02:20:24;;;;;;;17.02;12.25;;;10.80;99.90;;;;;;5054892;28;20025;-71
2022/09/30 02:23:24;;;;;;;16.92;11.68;;;10.60;99.90;;;;;;5054579;28;20033;-72
2022/09/30 02:25:58;;;;;;;16.75;12.25;;;10.70;99.90;;;;;;5054376;28;20511;-72
2022/09/30 02:28:28;;;;;;;17.08;12.32;;;10.70;99.90;;;;;;5055970;28;20434;-72
2022/09/30 02:30:58;;;;;;;18.60;13.05;;;10.70;99.90;;;;;;5054449;28;20020;-70
2022/09/30 02:33:53;;;;;;;15.13;10.93;;;10.60;99.90;;;;;;5054469;28;20028;-72
2022/09/30 02:36:28;;;;;;;14.10;10.68;;;10.60;99.90;;;;;;5054488;28;20024;-73
2022/09/30 02:39:10;;;;;;;16.08;11.75;;;10.50;99.90;;;;;;5054485;28;20049;-71
2022/09/30 02:41:48;;;;;;;17.35;11.75;;;10.40;99.90;;;;;;5055102;28;20021;-72
2022/09/30 02:44:15;;;;;;;16.73;11.07;;;10.30;99.90;;;;;;5055733;28;20503;-72
2022/09/30 02:46:49;;;;;;;16.20;11.60;;;10.30;99.90;;;;;;5054395;28;20128;-71
2022/09/30 02:49:18;;;;;;;14.00;10.13;;;10.40;99.90;;;;;;5056376;28;20131;-72
2022/09/30 02:52:21;;;;;;;14.40;10.60;;;10.40;99.90;;;;;;5056215;28;20362;-72
2022/09/30 02:55:26;;;;;;;15.35;11.05;;;10.50;99.90;;;;;;5055743;28;20489;-72
2022/09/30 02:57:55;;;;;;;15.07;11.40;;;10.50;99.90;;;;;;5014120;28;20491;-72
2022/09/30 03:00:20;;;;;;;12.77;9.55;;;10.40;99.90;;;;;;4997090;28;20028;-72
2022/09/30 03:02:46;;;;;;;19.13;10.87;;;10.40;99.90;;;;;;5014068;28;20033;-72
2022/09/30 03:05:12;;;;;;;15.00;10.95;;;10.60;99.90;;;;;;5013605;28;20425;-72
2022/09/30 03:07:39;;;;;;;13.15;10.48;;;10.50;99.90;;;;;;4996768;28;20028;-71
2022/09/30 03:10:13;;;;;;;15.70;10.43;;;10.30;99.90;;;;;;5013200;28;20076;-71
2022/09/30 03:13:05;;;;;;;16.33;10.85;;;10.20;99.90;;;;;;4996691;28;20053;-72
2022/09/30 03:15:45;;;;;;;15.73;10.70;;;10.20;99.90;;;;;;5002908;28;20078;-71
2022/09/30 03:18:26;;;;;;;17.30;11.75;;;10.10;99.90;;;;;;4996558;28;20032;-72
2022/09/30 03:21:13;;;;;;;14.85;10.65;;;10.10;99.90;;;;;;4996954;28;20038;-72
2022/09/30 03:24:14;;;;;;;15.73;10.35;;;10.10;99.90;;;;;;5013711;28;20168;-73
2022/09/30 03:27:13;;;;;;;15.82;10.48;;;10.20;99.90;;;;;;4996707;28;20049;-72
2022/09/30 03:29:56;;;;;;;18.05;10.95;;;10.20;99.90;;;;;;4988872;28;20636;-72
2022/09/30 03:33:00;;;;;;;16.17;10.23;;;10.30;99.90;;;;;;5013338;28;20440;-72
2022/09/30 03:35:42;;;;;;;12.98;9.90;;;10.40;99.90;;;;;;5053327;28;20397;-72
2022/09/30 03:38:44;;;;;;;15.55;9.88;;;10.30;99.90;;;;;;5054625;28;20545;-72
2022/09/30 03:41:21;;;;;;;17.10;11.25;;;10.30;99.90;;;;;;5053209;28;20075;-73
2022/09/30 03:43:52;;;;;;;13.70;9.68;;;10.30;99.90;;;;;;5053407;28;20383;-71
2022/09/30 03:46:23;;;;;;;17.88;10.60;;;10.30;99.90;;;;;;5054279;28;20108;-72
2022/09/30 03:48:53;;;;;;;12.50;9.65;;;10.30;99.90;;;;;;5055007;28;20053;-72
2022/09/30 03:51:20;;;;;;;14.70;9.90;;;10.30;99.90;;;;;;5053002;28;20029;-72
2022/09/30 03:53:46;;;;;;;12.93;9.80;;;10.30;99.90;;;;;;5053153;28;20037;-72
2022/09/30 03:56:12;;;;;;;13.65;10.05;;;10.20;99.90;;;;;;5053171;28;20078;-72
2022/09/30 03:58:43;;;;;;;13.23;9.75;;;10.20;99.90;;;;;;5053103;28;20033;-72
2022/09/30 04:01:18;;;;;;;13.50;10.43;;;10.20;99.90;;;;;;5053121;28;20025;-72
2022/09/30 04:03:44;;;;;;;16.45;11.13;;;10.20;99.90;;;;;;5054540;28;20032;-72
2022/09/30 04:06:12;;;;;;;16.17;11.27;;;10.10;99.90;;;;;;5053444;28;20021;-73
2022/09/30 04:08:38;;;;;;;17.10;10.88;;;10.10;99.90;;;;;;5055266;28;20076;-73
2022/09/30 04:11:04;;;;;;;18.03;12.60;;;10.00;99.90;;;;;;5052350;28;20016;-73
2022/09/30 04:13:30;;;;;;;18.25;13.20;;;10.00;99.90;;;;;;5052845;28;20028;-73
2022/09/30 04:15:55;;;;;;;19.30;12.45;;;10.10;99.90;;;;;;5053681;28;20036;-72
2022/09/30 04:18:21;;;;;;;22.73;14.00;;;10.10;99.90;;;;;;5053625;28;20055;-72
2022/09/30 04:20:47;;;;;;;26.55;15.38;;;10.10;99.90;;;;;;5053963;28;20052;-73
2022/09/30 04:23:12;;;;;;;35.27;17.27;;;10.10;99.90;;;;;;5054466;28;20389;-73
2022/09/30 04:25:38;;;;;;;34.47;16.90;;;10.10;99.90;;;;;;5054500;28;20071;-72
2022/09/30 04:28:03;;;;;;;51.50;18.10;;;10.10;99.90;;;;;;5053510;28;20423;-70
2022/09/30 04:30:29;;;;;;;53.40;18.30;;;10.10;99.90;;;;;;5052524;28;20036;-70
2022/09/30 04:32:54;;;;;;;41.83;18.53;;;10.00;99.90;;;;;;5054240;28;20057;-68
2022/09/30 04:35:20;;;;;;;37.10;17.90;;;9.90;99.90;;;;;;5053659;28;20064;-66
2022/09/30 04:37:46;;;;;;;37.38;17.58;;;9.80;99.90;;;;;;5053909;28;20064;-68
2022/09/30 04:40:14;;;;;;;28.58;14.25;;;9.80;99.90;;;;;;5054229;28;20024;-71
2022/09/30 04:42:41;;;;;;;30.45;15.32;;;9.80;99.90;;;;;;5056155;28;20029;-72
2022/09/30 04:45:09;;;;;;;28.88;14.23;;;9.80;99.90;;;;;;5054080;28;20020;-72
2022/09/30 04:47:35;;;;;;;28.45;15.05;;;9.90;99.90;;;;;;5054445;28;20021;-70
2022/09/30 04:50:00;;;;;;;33.40;14.80;;;9.90;99.90;;;;;;5052638;28;20116;-72
2022/09/30 04:52:26;;;;;;;27.53;14.77;;;9.90;99.90;;;;;;5052784;28;20039;-72
2022/09/30 04:54:52;;;;;;;26.40;13.87;;;9.90;99.90;;;;;;5054574;28;20025;-72
2022/09/30 04:57:18;;;;;;;26.52;13.57;;;10.00;99.90;;;;;;5054154;28;20029;-72
2022/09/30 04:59:44;;;;;;;25.98;13.43;;;9.90;99.90;;;;;;5052778;28;20036;-72
2022/09/30 05:02:11;;;;;;;28.02;13.05;;;10.00;99.90;;;;;;5052951;28;20029;-72
2022/09/30 05:04:37;;;;;;;24.85;11.65;;;10.00;99.90;;;;;;5053249;28;20017;-71
2022/09/30 05:07:07;;;;;;;23.55;11.57;;;10.00;99.90;;;;;;5053163;28;20025;-71
2022/09/30 05:09:35;;;;;;;41.47;19.90;;;10.00;99.90;;;;;;5054711;28;20123;-71
2022/09/30 05:12:02;;;;;;;23.80;11.88;;;10.00;99.90;;;;;;5054131;28;20029;-72
2022/09/30 05:14:28;;;;;;;20.25;11.32;;;10.00;99.90;;;;;;5053879;28;20021;-70
2022/09/30 05:16:54;;;;;;;21.00;11.00;;;9.90;99.90;;;;;;5055249;28;20136;-72
2022/09/30 05:19:22;;;;;;;21.23;10.93;;;9.80;99.90;;;;;;5056163;28;20104;-72
2022/09/30 05:21:48;;;;;;;20.55;10.82;;;9.80;99.90;;;;;;5055739;28;20275;-72
2022/09/30 05:24:13;;;;;;;21.63;11.73;;;9.90;99.90;;;;;;5059630;28;20466;-73
2022/09/30 05:26:39;;;;;;;21.00;11.13;;;10.10;99.90;;;;;;5060989;28;20024;-73
2022/09/30 05:29:06;;;;;;;20.13;11.48;;;10.10;99.90;;;;;;5062689;28;20021;-72
2022/09/30 05:31:31;;;;;;;18.13;10.27;;;10.10;99.90;;;;;;5061379;28;20025;-71
2022/09/30 05:33:57;;;;;;;18.95;10.85;;;10.10;99.90;;;;;;5067534;28;20082;-71
2022/09/30 05:36:23;;;;;;;21.40;11.47;;;10.00;99.90;;;;;;5071718;28;20052;-71
2022/09/30 05:38:52;;;;;;;20.90;11.80;;;9.90;99.90;;;;;;5074167;28;20040;-71
2022/09/30 05:41:19;;;;;;;18.80;11.40;;;9.90;99.90;;;;;;5075514;28;20037;-71
2022/09/30 05:43:48;;;;;;;20.08;12.10;;;9.90;99.90;;;;;;5074341;28;20028;-71
2022/09/30 05:46:18;;;;;;;19.77;11.18;;;10.00;99.90;;;;;;5072726;28;20056;-71
2022/09/30 05:48:44;;;;;;;20.20;11.90;;;10.10;99.90;;;;;;5072046;28;20051;-71
2022/09/30 05:51:10;;;;;;;21.27;11.93;;;10.10;99.90;;;;;;5072076;28;20029;-71
2022/09/30 05:53:37;;;;;;;20.38;11.63;;;10.10;99.90;;;;;;5065523;28;20033;-71
2022/09/30 05:56:03;;;;;;;19.42;11.02;;;10.00;99.90;;;;;;5063235;28;20021;-72
2022/09/30 05:58:30;;;;;;;21.02;11.23;;;10.00;99.90;;;;;;5060374;28;20048;-72
2022/09/30 06:00:55;;;;;;;19.23;10.43;;;10.00;99.90;;;;;;5073808;28;20084;-71
2022/09/30 06:03:21;;;;;;;19.87;12.07;;;10.10;99.90;;;;;;5066055;28;20039;-71
2022/09/30 06:05:47;;;;;;;22.92;11.27;;;10.00;99.90;;;;;;5067570;28;20460;-71
2022/09/30 06:08:13;;;;;;;17.85;10.52;;;10.10;99.90;;;;;;5071644;28;20044;-72
2022/09/30 06:10:43;;;;;;;14.93;9.88;;;9.90;99.90;;;;;;5073706;28;20018;-71
2022/09/30 06:13:09;;;;;;;15.30;9.48;;;10.00;99.90;;;;;;5069929;28;20031;-72
2022/09/30 06:15:37;;;;;;;15.88;10.38;;;10.10;99.90;;;;;;5057934;28;20432;-72
2022/09/30 06:18:03;;;;;;;16.35;10.48;;;10.20;99.90;;;;;;5057338;28;20075;-72
2022/09/30 06:20:29;;;;;;;17.70;10.73;;;10.20;99.90;;;;;;5057108;28;20033;-71
2022/09/30 06:22:57;;;;;;;15.65;10.00;;;10.30;99.90;;;;;;5056981;28;20060;-71
2022/09/30 06:25:22;;;;;;;15.95;10.43;;;10.30;99.90;;;;;;5056786;28;20060;-71
2022/09/30 06:27:49;;;;;;;17.17;11.30;;;10.40;99.90;;;;;;5055157;28;20025;-72
2022/09/30 06:30:14;;;;;;;17.27;11.73;;;10.40;99.90;;;;;;5056218;28;20017;-72
2022/09/30 06:32:41;;;;;;;16.83;11.73;;;10.40;99.90;;;;;;5055127;28;20036;-73
2022/09/30 06:35:07;;;;;;;16.35;11.25;;;10.30;99.90;;;;;;5054168;28;20036;-71
2022/09/30 06:37:35;;;;;;;17.27;10.50;;;10.20;99.90;;;;;;5055635;28;20496;-71
2022/09/30 06:40:01;;;;;;;17.38;11.57;;;10.20;99.90;;;;;;5054948;28;20055;-71
2022/09/30 06:42:26;;;;;;;14.33;11.00;;;10.20;99.90;;;;;;5056934;28;20537;-71
2022/09/30 06:44:53;;;;;;;16.33;11.07;;;10.20;99.90;;;;;;5056534;28;20023;-71
2022/09/30 06:47:18;;;;;;;16.15;11.10;;;10.30;99.90;;;;;;5055048;28;20055;-71
2022/09/30 06:49:44;;;;;;;15.63;10.50;;;10.40;99.90;;;;;;5055057;28;20025;-74
2022/09/30 06:52:12;;;;;;;13.30;10.47;;;10.50;99.90;;;;;;5055918;28;20025;-72
2022/09/30 06:54:41;;;;;;;12.43;9.15;;;10.60;99.90;;;;;;5057328;28;20122;-72
2022/09/30 06:57:07;;;;;;;12.35;9.80;;;10.70;99.90;;;;;;5055357;28;20067;-72
2022/09/30 06:59:32;;;;;;;13.17;9.57;;;10.80;99.90;;;;;;5054786;28;20029;-73
2022/09/30 07:01:58;;;;;;;14.60;9.87;;;10.90;99.90;;;;;;5054857;28;20025;-73
2022/09/30 07:04:23;;;;;;;14.67;10.00;;;11.00;99.90;;;;;;5054313;28;20029;-73
2022/09/30 07:06:49;;;;;;;13.90;9.67;;;11.10;99.90;;;;;;5054167;28;20371;-72
2022/09/30 07:09:15;;;;;;;12.68;10.02;;;11.20;99.90;;;;;;5054690;28;20371;-72
2022/09/30 07:11:41;;;;;;;12.98;9.27;;;11.30;99.90;;;;;;5053949;28;20051;-73
2022/09/30 07:14:07;;;;;;;14.27;10.40;;;11.30;99.90;;;;;;5053750;28;20056;-72
2022/09/30 07:16:33;;;;;;;14.20;9.40;;;11.40;99.90;;;;;;5055260;28;20059;-72
2022/09/30 07:19:03;;;;;;;14.00;9.70;;;11.50;99.90;;;;;;5055329;28;20091;-72
2022/09/30 07:21:30;;;;;;;13.73;9.07;;;11.60;99.90;;;;;;5053815;28;20110;-72
2022/09/30 07:23:57;;;;;;;11.82;9.30;;;11.50;99.90;;;;;;5053767;28;20386;-72
2022/09/30 07:26:23;;;;;;;12.93;8.77;;;11.70;99.90;;;;;;5055794;28;20466;-72
2022/09/30 07:28:50;;;;;;;12.00;8.85;;;11.90;99.90;;;;;;5055745;28;20056;-72
2022/09/30 07:31:24;;;;;;;11.82;8.38;;;12.10;99.90;;;;;;5056650;28;20025;-72
2022/09/30 07:33:50;;;;;;;11.88;8.65;;;12.40;99.90;;;;;;5054217;28;20048;-71
2022/09/30 07:36:18;;;;;;;10.95;8.65;;;12.60;99.90;;;;;;5053271;28;20116;-71
2022/09/30 07:38:48;;;;;;;12.85;7.95;;;12.90;99.90;;;;;;5053340;28;20033;-72
2022/09/30 07:41:27;;;;;;;10.52;7.93;;;12.70;99.90;;;;;;5054441;28;20021;-72
2022/09/30 07:43:55;;;;;;;9.10;7.30;;;12.80;99.90;;;;;;5055036;28;20013;-72
2022/09/30 07:46:33;;;;;;;9.68;7.50;;;12.90;99.90;;;;;;5054354;28;20074;-72
2022/09/30 07:49:05;;;;;;;8.90;7.82;;;13.00;99.90;;;;;;5053224;28;20031;-72
2022/09/30 07:51:34;;;;;;;11.00;8.38;;;12.90;99.90;;;;;;5054288;28;20032;-72
2022/09/30 07:54:13;;;;;;;11.48;7.88;;;13.10;99.90;;;;;;5053107;28;20029;-71
2022/09/30 07:56:40;;;;;;;10.52;8.52;;;13.30;99.90;;;;;;5052927;28;20393;-71
2022/09/30 07:59:06;;;;;;;11.55;7.93;;;13.60;99.90;;;;;;5052509;28;20033;-72
2022/09/30 08:01:32;;;;;;;10.43;8.50;;;13.80;99.90;;;;;;5053012;28;20398;-72
2022/09/30 08:04:00;;;;;;;9.75;8.13;;;13.70;99.90;;;;;;5052943;28;20264;-72
2022/09/30 08:06:28;;;;;;;10.55;8.55;;;13.80;99.90;;;;;;5054073;28;20071;-72
2022/09/30 08:08:55;;;;;;;15.80;8.60;;;13.70;99.90;;;;;;5052482;28;20056;-72
2022/09/30 08:11:21;;;;;;;13.00;8.65;;;13.70;99.90;;;;;;5053091;28;20036;-72
2022/09/30 08:13:55;;;;;;;13.00;8.50;;;13.50;99.90;;;;;;5052770;28;20021;-73
2022/09/30 08:16:22;;;;;;;13.40;9.57;;;13.30;99.90;;;;;;5054079;28;20108;-72
2022/09/30 08:18:47;;;;;;;11.07;9.13;;;13.30;99.90;;;;;;5052589;28;20024;-72
2022/09/30 08:21:13;;;;;;;13.15;9.48;;;13.60;99.90;;;;;;5054373;28;20025;-73
2022/09/30 08:23:39;;;;;;;11.50;8.97;;;13.50;99.90;;;;;;5053905;28;20025;-73
2022/09/30 08:26:06;;;;;;;9.77;8.77;;;13.50;99.90;;;;;;5052448;28;20268;-73
2022/09/30 08:28:32;;;;;;;9.88;8.50;;;13.60;99.90;;;;;;5051776;28;20033;-72
2022/09/30 08:31:13;;;;;;;11.23;9.23;;;13.50;99.90;;;;;;5053461;28;20013;-72
2022/09/30 08:33:39;;;;;;;10.70;8.52;;;13.90;99.90;;;;;;5052266;28;20524;-72
2022/09/30 08:36:07;;;;;;;11.00;9.02;;;13.80;99.90;;;;;;5052123;28;20029;-72
2022/09/30 08:38:33;;;;;;;11.65;9.25;;;13.70;99.90;;;;;;5052092;28;20362;-72
2022/09/30 08:41:23;;;;;;;12.80;9.73;;;13.30;99.90;;;;;;5052354;28;20155;-72
2022/09/30 08:44:18;;;;;;;14.02;9.30;;;13.00;99.90;;;;;;5053620;28;20449;-73
2022/09/30 08:46:56;;;;;;;18.92;9.82;;;13.00;99.90;;;;;;5053379;28;20379;-72
2022/09/30 08:49:31;;;;;;;21.60;9.35;;;12.90;99.90;;;;;;5052145;28;20028;-72
2022/09/30 08:52:00;;;;;;;13.25;9.70;;;13.10;99.90;;;;;;5053525;28;20025;-73
2022/09/30 08:54:33;;;;;;;11.80;9.02;;;13.10;99.90;;;;;;5052503;28;20021;-72
2022/09/30 08:57:01;;;;;;;10.88;9.32;;;13.20;99.90;;;;;;5051782;28;20097;-71
2022/09/30 08:59:33;;;;;;;12.85;9.13;;;13.10;99.90;;;;;;5053191;28;20108;-72
2022/09/30 09:02:31;;;;;;;14.52;9.93;;;13.10;99.90;;;;;;5052063;28;20033;-72
2022/09/30 09:04:58;;;;;;;;;;;13.10;99.90;;;;;;5052371;28;20048;-72
2022/09/30 09:07:53;;;;;;;11.75;9.13;;;13.10;99.90;;;;;;5053390;28;19932;-71
2022/09/30 09:10:38;;;;;;;14.38;10.13;;;12.80;99.90;;;;;;5049971;28;20512;-72
2022/09/30 09:13:51;;;;;;;12.95;9.85;;;12.80;99.90;;;;;;5052161;28;20029;-72
2022/09/30 09:16:25;;;;;;;12.32;9.25;;;12.80;99.90;;;;;;5041333;28;20135;-72
2022/09/30 09:18:52;;;;;;;12.43;9.25;;;12.90;99.90;;;;;;5052513;28;20545;-72
2022/09/30 09:21:37;;;;;;;;;;;13.20;99.90;;;;;;5054195;28;20428;-73
2022/09/30 09:24:11;;;;;;;11.65;8.70;;;13.40;99.90;;;;;;5049691;28;20277;-74
2022/09/30 09:26:37;;;;;;;13.15;8.82;;;13.60;99.90;;;;;;5053595;28;20040;-72
2022/09/30 09:29:34;;;;;;;11.37;9.70;;;13.60;99.90;;;;;;5053610;28;20025;-72
2022/09/30 09:32:02;;;;;;;11.05;8.50;;;13.80;99.90;;;;;;5044242;28;20271;-72
2022/09/30 09:34:29;;;;;;;10.35;9.05;;;14.10;99.90;;;;;;5052293;28;20025;-73
2022/09/30 09:40:25;;;;;;;11.50;8.23;;;14.50;99.90;;;;;;5048034;28;20499;-72
2022/09/30 09:43:32;;;;;;;13.70;9.10;;;14.70;99.90;;;;;;5051938;28;20033;-72
2022/09/30 09:46:16;;;;;;;14.85;9.07;;;15.10;99.90;;;;;;5031291;28;20032;-73
2022/09/30 09:48:43;;;;;;;12.07;8.05;;;15.80;99.90;;;;;;5031479;28;20030;-72
2022/09/30 09:51:27;;;;;;;9.98;7.85;;;16.40;99.90;;;;;;5032697;28;20124;-73
2022/09/30 09:53:57;;;;;;;9.27;7.50;;;17.20;99.90;;;;;;5034469;28;20045;-72
2022/09/30 09:56:27;;;;;;;11.10;6.95;;;17.50;99.90;;;;;;5034598;28;20025;-71
2022/09/30 09:59:17;;;;;;;11.40;7.70;;;18.40;99.90;;;;;;5015764;28;20093;-72
2022/09/30 10:01:49;;;;;;;11.80;7.40;;;18.50;99.90;;;;;;5017223;28;20030;-72
2022/09/30 10:04:24;;;;;;;9.75;7.40;;;19.30;99.90;;;;;;4999943;28;20034;-73
2022/09/30 10:07:10;;;;;;;11.85;7.20;;;21.10;99.90;;;;;;5015375;28;20058;-72
2022/09/30 10:09:39;;;;;;;11.68;7.38;;;23.90;97.90;;;;;;5013165;28;20133;-72
2022/09/30 10:12:05;;;;;;;8.10;5.90;;;26.40;92.90;;;;;;5015836;28;20479;-72
2022/09/30 10:14:47;;;;;;;8.13;6.70;;;27.50;90.50;;;;;;5015256;28;20029;-72
2022/09/30 10:17:25;;;;;;;8.38;6.25;;;28.10;87.10;;;;;;5032080;28;20045;-71
2022/09/30 10:19:53;;;;;;;8.25;5.93;;;27.70;84.50;;;;;;5040440;28;20033;-72
2022/09/30 10:22:29;;;;;;;9.05;6.60;;;26.50;85.60;;;;;;5039785;28;20034;-72
2022/09/30 10:25:28;;;;;;;11.07;6.53;;;25.50;86.50;;;;;;5036618;28;20025;-72
2022/09/30 10:28:02;;;;;;;9.68;6.93;;;25.50;86.40;;;;;;5001222;28;20073;-73
2022/09/30 10:30:47;;;;;;;8.98;6.72;;;23.80;90.50;;;;;;5001583;28;20138;-73
2022/09/30 10:33:26;;;;;;;7.75;6.43;;;22.50;91.60;;;;;;5017159;28;20081;-73
2022/09/30 10:35:56;;;;;;;7.95;6.45;;;22.00;92.80;;;;;;5015722;28;20030;-72
2022/09/30 10:38:24;;;;;;;9.27;6.68;;;21.60;93.70;;;;;;5014917;28;20042;-71
2022/09/30 10:40:50;;;;;;;11.20;7.40;;;20.60;94.80;;;;;;5015046;28;20040;-72
2022/09/30 10:43:36;;;;;;;;;;;20.40;95.80;;;;;;5014950;28;20088;-72
2022/09/30 10:46:03;;;;;;;8.40;6.45;;;20.30;97.10;;;;;;5013601;28;19906;-71
2022/09/30 10:48:33;;;;;;;9.88;6.70;;;22.10;94.60;;;;;;5015213;28;20572;-71
2022/09/30 10:50:58;;;;;;;9.18;6.47;;;23.50;92.30;;;;;;4998040;28;20439;-71
2022/09/30 10:53:28;;;;;;;7.88;7.07;;;25.00;91.00;;;;;;4997859;28;20029;-71
2022/09/30 10:55:55;;;;;;;9.95;6.55;;;25.40;88.60;;;;;;4998142;28;20030;-73
2022/09/30 10:58:40;;;;;;;10.23;7.10;;;24.40;89.50;;;;;;4998412;28;20068;-72
2022/09/30 11:01:21;;;;;;;10.10;6.53;;;23.30;91.10;;;;;;5013967;28;20034;-71
2022/09/30 11:04:24;;;;;;;8.45;7.10;;;22.20;92.60;;;;;;5041442;28;20044;-73
2022/09/30 11:06:57;;;;;;;9.00;7.45;;;20.80;94.00;;;;;;5055892;28;20056;-71
2022/09/30 11:09:42;;;;;;;10.45;7.65;;;20.00;95.70;;;;;;5055208;28;20013;-71
2022/09/30 11:12:22;;;;;;;9.85;7.25;;;19.20;97.30;;;;;;5055758;28;20048;-72
2022/09/30 11:15:02;;;;;;;11.93;7.65;;;18.30;99.10;;;;;;5055605;28;20033;-73
2022/09/30 11:17:49;;;;;;;11.00;7.65;;;17.80;99.90;;;;;;5053767;28;20021;-72
2022/09/30 11:20:23;;;;;;;12.53;7.63;;;17.40;99.90;;;;;;5053409;28;20031;-74
2022/09/30 11:22:58;;;;;;;11.60;7.18;;;17.60;99.90;;;;;;5054937;28;20504;-71
2022/09/30 11:25:32;;;;;;;8.65;6.68;;;17.70;99.90;;;;;;5054749;28;20029;-69
2022/09/30 11:28:00;;;;;;;11.65;8.02;;;18.00;99.90;;;;;;5053350;28;20032;-71
2022/09/30 11:30:54;;;;;;;12.60;7.32;;;17.80;99.90;;;;;;5053054;28;20053;-70
2022/09/30 11:33:33;;;;;;;12.18;8.23;;;17.90;99.90;;;;;;5056769;28;20033;-72
2022/09/30 11:36:55;;;;;;;9.57;7.25;;;17.70;99.90;;;;;;5056349;28;20473;-73
2022/09/30 11:39:42;;;;;;;12.48;6.93;;;17.40;99.90;;;;;;5033067;28;20082;-69
2022/09/30 11:42:14;;;;;;;11.52;7.05;;;17.40;99.90;;;;;;5032655;28;20390;-69
2022/09/30 11:44:43;;;;;;;9.50;7.07;;;17.40;99.90;;;;;;5015891;28;20034;-70
2022/09/30 11:47:31;;;;;;;10.25;7.43;;;17.40;99.90;;;;;;5032533;28;20026;-70
2022/09/30 11:50:29;;;;;;;10.55;7.25;;;17.30;99.90;;;;;;5032830;28;20036;-74
2022/09/30 11:53:10;;;;;;;9.60;6.53;;;17.20;99.90;;;;;;5016102;28;20072;-73
2022/09/30 11:56:08;;;;;;;9.77;6.70;;;17.20;99.90;;;;;;5016128;28;20060;-73
2022/09/30 11:58:38;;;;;;;9.45;6.45;;;17.20;99.90;;;;;;4990074;28;20041;-72
2022/09/30 12:01:25;;;;;;;12.52;6.70;;;17.20;99.90;;;;;;5031965;28;20030;-72
2022/09/30 12:04:06;;;;;;;11.40;6.93;;;17.10;99.90;;;;;;5015468;28;20037;-72
2022/09/30 12:06:37;;;;;;;9.60;7.03;;;17.20;99.90;;;;;;5015248;28;20486;-73
2022/09/30 12:09:15;;;;;;;12.77;7.03;;;17.20;99.90;;;;;;5016215;28;20084;-73
2022/09/30 12:11:53;;;;;;;11.60;7.22;;;17.00;99.90;;;;;;5034253;28;20386;-72
2022/09/30 12:14:28;;;;;;;12.40;6.72;;;16.90;99.90;;;;;;5033865;28;20021;-72
2022/09/30 12:16:55;;;;;;;11.80;6.60;;;16.80;99.90;;;;;;5032474;28;20025;-71
2022/09/30 12:19:37;;;;;;;12.60;7.10;;;16.70;99.90;;;;;;5032434;28;20026;-70
2022/09/30 12:22:20;;;;;;;12.50;7.55;;;16.80;99.90;;;;;;5032321;28;20068;-67
2022/09/30 12:24:46;;;;;;;10.40;6.38;;;16.40;99.90;;;;;;5033817;28;20124;-67
2022/09/30 12:27:22;;;;;;;9.93;7.10;;;16.40;99.90;;;;;;5033460;28;20517;-67
2022/09/30 12:30:17;;;;;;;7.97;6.15;;;16.50;99.90;;;;;;5052918;28;20112;-68
2022/09/30 12:33:10;;;;;;;10.27;6.47;;;16.30;99.90;;;;;;5052817;28;20031;-72
2022/09/30 12:36:06;;;;;;;9.45;5.75;;;16.10;99.90;;;;;;5052591;28;20138;-72
2022/09/30 12:38:53;;;;;;;9.93;5.07;;;16.10;99.90;;;;;;5052196;28;20029;-72
2022/09/30 12:41:31;;;;;;;8.55;5.10;;;16.10;99.90;;;;;;5052316;28;20033;-69
2022/09/30 12:44:27;;;;;;;10.02;5.30;;;16.30;99.90;;;;;;5053464;28;20028;-70
2022/09/30 12:47:32;;;;;;;9.48;4.80;;;16.50;99.90;;;;;;5052211;28;20024;-70
2022/09/30 12:50:00;;;;;;;8.18;4.57;;;16.60;99.90;;;;;;5053554;28;20025;-68
2022/09/30 12:52:32;;;;;;;8.40;4.82;;;16.80;99.90;;;;;;5054918;28;20074;-68
2022/09/30 12:55:06;;;;;;;6.97;4.55;;;17.20;99.90;;;;;;5054832;28;20021;-68
2022/09/30 12:57:37;;;;;;;8.52;4.30;;;17.40;99.90;;;;;;5054114;28;20112;-67
2022/09/30 13:00:18;;;;;;;9.85;4.97;;;17.50;99.90;;;;;;5053429;28;20021;-68
2022/09/30 13:02:48;;;;;;;7.65;4.57;;;17.60;99.90;;;;;;5052129;28;20032;-69
2022/09/30 13:05:26;;;;;;;8.07;4.97;;;17.50;99.90;;;;;;5053617;28;20025;-70
2022/09/30 13:08:04;;;;;;;8.20;4.57;;;17.60;99.90;;;;;;5052129;28;20048;-70
2022/09/30 13:10:30;;;;;;;6.72;4.30;;;17.50;99.90;;;;;;5053137;28;20025;-69
2022/09/30 13:13:32;;;;;;;8.73;4.18;;;17.80;99.90;;;;;;5051218;28;20044;-73